createdAt,value
2022-08-28T00:00:31.306Z,6.43
2022-08-28T00:01:03.212Z,4.34
2022-08-28T00:01:35.711Z,3.54
2022-08-28T00:02:07.293Z,1.77
2022-08-28T00:02:35.777Z,4.66
2022-08-28T00:02:55.655Z,4.02
2022-08-28T00:03:27.250Z,5.47
2022-08-28T00:03:59.928Z,3.54
2022-08-28T00:04:31.296Z,4.02
2022-08-28T00:05:03.680Z,5.47
2022-08-28T00:05:35.498Z,5.47
2022-08-28T00:06:07.193Z,7.56
2022-08-28T00:06:35.901Z,4.66
2022-08-28T00:07:11.300Z,6.11
2022-08-28T00:07:35.876Z,3.54
2022-08-28T00:07:59.294Z,8.69
2022-08-28T00:08:31.268Z,4.02
2022-08-28T00:09:03.951Z,2.09
2022-08-28T00:09:35.569Z,2.57
2022-08-28T00:10:07.354Z,3.21
2022-08-28T00:10:35.700Z,1.44
2022-08-28T00:10:55.621Z,3.21
2022-08-28T00:11:27.318Z,2.09
2022-08-28T00:12:00.427Z,6.11
2022-08-28T00:12:31.380Z,1.44
2022-08-28T00:13:03.724Z,2.09
2022-08-28T00:13:35.276Z,8.20
2022-08-28T00:14:08.144Z,3.54
2022-08-28T00:14:36.015Z,5.47
2022-08-28T00:14:55.644Z,5.47
2022-08-28T00:15:28.191Z,5.47
2022-08-28T00:15:59.621Z,1.44
2022-08-28T00:16:35.132Z,0
2022-08-28T00:17:03.177Z,4.34
2022-08-28T00:17:37.249Z,6.11
2022-08-28T00:18:07.249Z,4.98
2022-08-28T00:18:36.726Z,2.57
2022-08-28T00:18:55.630Z,7.56
2022-08-28T00:19:27.238Z,8.69
2022-08-28T00:19:59.286Z,4.02
2022-08-28T00:20:31.282Z,2.57
2022-08-28T00:21:03.205Z,4.02
2022-08-28T00:21:36.332Z,2.09
2022-08-28T00:22:07.209Z,2.89
2022-08-28T00:22:36.636Z,1.77
2022-08-28T00:22:55.705Z,1.12
2022-08-28T00:23:28.421Z,5.47
2022-08-28T00:23:59.522Z,4.34
2022-08-28T00:24:31.236Z,.64
2022-08-28T00:25:03.173Z,0
2022-08-28T00:25:36.247Z,2.09
2022-08-28T00:26:07.389Z,3.21
2022-08-28T00:26:36.794Z,4.98
2022-08-28T00:26:55.541Z,7.56
2022-08-28T00:27:28.216Z,4.34
2022-08-28T00:27:59.179Z,3.54
2022-08-28T00:28:31.212Z,2.89
2022-08-28T00:29:03.192Z,2.89
2022-08-28T00:29:35.582Z,1.44
2022-08-28T00:30:08.381Z,5.47
2022-08-28T00:30:36.185Z,2.89
2022-08-28T00:30:56.661Z,2.57
2022-08-28T00:31:27.217Z,1.44
2022-08-28T00:32:00.046Z,.32
2022-08-28T00:32:31.249Z,4.02
2022-08-28T00:33:03.169Z,2.09
2022-08-28T00:33:35.521Z,6.11
2022-08-28T00:34:07.228Z,2.09
2022-08-28T00:34:35.746Z,3.54
2022-08-28T00:34:55.563Z,3.54
2022-08-28T00:35:27.204Z,4.66
2022-08-28T00:35:59.261Z,3.21
2022-08-28T00:36:31.174Z,4.98
2022-08-28T00:37:03.254Z,9.01
2022-08-28T00:37:36.318Z,5.79
2022-08-28T00:38:08.064Z,4.34
2022-08-28T00:38:35.793Z,4.02
2022-08-28T00:38:55.427Z,4.02
2022-08-28T00:39:27.860Z,4.02
2022-08-28T00:40:00.231Z,4.66
2022-08-28T00:40:32.937Z,4.66
2022-08-28T00:41:04.061Z,6.43
2022-08-28T00:41:35.591Z,2.89
2022-08-28T00:42:07.333Z,4.02
2022-08-28T00:42:35.999Z,5.47
2022-08-28T00:42:55.568Z,2.57
2022-08-28T00:43:27.263Z,3.21
2022-08-28T00:43:59.292Z,1.44
2022-08-28T00:44:33.021Z,8.69
2022-08-28T00:45:04.455Z,4.98
2022-08-28T00:45:39.598Z,4.66
2022-08-28T00:46:07.319Z,3.54
2022-08-28T00:46:35.860Z,8.20
2022-08-28T00:46:57.131Z,6.11
2022-08-28T00:47:27.221Z,2.89
2022-08-28T00:47:59.160Z,2.09
2022-08-28T00:48:31.087Z,7.88
2022-08-28T00:49:04.174Z,2.09
2022-08-28T00:49:35.798Z,1.12
2022-08-28T00:50:07.178Z,4.66
2022-08-28T00:50:37.373Z,4.98
2022-08-28T00:51:12.345Z,5.79
2022-08-28T00:51:36.012Z,3.54
2022-08-28T00:51:59.355Z,6.11
2022-08-28T00:52:33.432Z,4.02
2022-08-28T00:53:03.085Z,1.12
2022-08-28T00:53:36.209Z,5.47
2022-08-28T00:54:08.031Z,3.21
2022-08-28T00:54:35.800Z,2.09
2022-08-28T00:54:59.025Z,3.54
2022-08-28T00:55:27.216Z,4.34
2022-08-28T00:55:59.234Z,4.02
2022-08-28T00:56:31.311Z,6.11
2022-08-28T00:57:03.150Z,4.02
2022-08-28T00:57:35.734Z,5.79
2022-08-28T00:58:08.300Z,6.43
2022-08-28T00:58:37.382Z,5.47
2022-08-28T00:58:55.343Z,3.21
2022-08-28T00:59:27.210Z,2.89
2022-08-28T00:59:43.684Z,3.21
2022-08-28T01:00:16.076Z,4.34
2022-08-28T01:00:35.757Z,4.02
2022-08-28T01:01:03.152Z,4.34
2022-08-28T01:01:35.817Z,4.66
2022-08-28T01:02:07.333Z,1.12
2022-08-28T01:02:35.828Z,4.66
2022-08-28T01:02:55.602Z,2.09
2022-08-28T01:03:27.173Z,3.21
2022-08-28T01:03:44.293Z,4.34
2022-08-28T01:04:15.793Z,1.12
2022-08-28T01:04:35.697Z,6.11
2022-08-28T01:05:04.183Z,3.54
2022-08-28T01:05:35.788Z,9.33
2022-08-28T01:06:07.118Z,2.57
2022-08-28T01:06:36.562Z,6.11
2022-08-28T01:06:55.551Z,2.89
2022-08-28T01:07:27.111Z,2.57
2022-08-28T01:07:43.671Z,1.44
2022-08-28T01:08:15.772Z,2.09
2022-08-28T01:08:35.731Z,2.09
2022-08-28T01:09:03.206Z,0
2022-08-28T01:09:35.853Z,2.09
2022-08-28T01:10:07.644Z,3.54
2022-08-28T01:10:35.727Z,2.89
2022-08-28T01:10:55.555Z,2.89
2022-08-28T01:11:28.156Z,.64
2022-08-28T01:11:59.151Z,.64
2022-08-28T01:12:35.665Z,2.09
2022-08-28T01:13:03.451Z,3.54
2022-08-28T01:13:35.532Z,3.54
2022-08-28T01:14:07.841Z,3.54
2022-08-28T01:14:35.792Z,2.89
2022-08-28T01:15:11.381Z,4.02
2022-08-28T01:15:36.588Z,2.57
2022-08-28T01:15:59.338Z,4.98
2022-08-28T01:16:33.731Z,5.47
2022-08-28T01:17:03.574Z,2.57
2022-08-28T01:17:35.643Z,3.54
2022-08-28T01:18:08.401Z,3.21
2022-08-28T01:18:35.788Z,7.88
2022-08-28T01:18:55.541Z,2.89
2022-08-28T01:19:27.219Z,4.34
2022-08-28T01:19:43.732Z,2.09
2022-08-28T01:20:16.385Z,1.44
2022-08-28T01:20:35.874Z,0
2022-08-28T01:21:03.111Z,1.12
2022-08-28T01:21:35.521Z,1.44
2022-08-28T01:22:14.035Z,4.66
2022-08-28T01:22:37.566Z,4.66
2022-08-28T01:22:55.450Z,3.21
2022-08-28T01:23:28.480Z,1.12
2022-08-28T01:23:59.085Z,1.12
2022-08-28T01:24:31.214Z,0
2022-08-28T01:25:03.089Z,.64
2022-08-28T01:25:35.666Z,4.98
2022-08-28T01:26:10.815Z,1.77
2022-08-28T01:26:36.740Z,1.12
2022-08-28T01:26:55.479Z,3.54
2022-08-28T01:27:27.181Z,.32
2022-08-28T01:27:43.662Z,0
2022-08-28T01:28:15.899Z,0
2022-08-28T01:28:35.842Z,0
2022-08-28T01:29:03.055Z,0
2022-08-28T01:29:35.870Z,2.09
2022-08-28T01:30:07.486Z,1.12
2022-08-28T01:30:35.783Z,3.54
2022-08-28T01:30:55.957Z,2.57
2022-08-28T01:31:27.283Z,2.09
2022-08-28T01:31:46.019Z,1.12
2022-08-28T01:32:15.580Z,.32
2022-08-28T01:32:35.853Z,1.12
2022-08-28T01:33:03.076Z,2.09
2022-08-28T01:33:35.978Z,2.09
2022-08-28T01:34:07.194Z,1.12
2022-08-28T01:34:35.898Z,.64
2022-08-28T01:34:55.578Z,5.47
2022-08-28T01:35:27.260Z,1.44
2022-08-28T01:35:44.028Z,2.09
2022-08-28T01:36:15.579Z,2.89
2022-08-28T01:36:36.620Z,6.11
2022-08-28T01:37:03.731Z,4.34
2022-08-28T01:37:35.544Z,3.21
2022-08-28T01:38:07.128Z,0
2022-08-28T01:38:36.630Z,0
2022-08-28T01:38:55.502Z,0
2022-08-28T01:39:27.848Z,.32
2022-08-28T01:39:59.183Z,.32
2022-08-28T01:40:31.312Z,0
2022-08-28T01:41:04.303Z,0
2022-08-28T01:41:35.436Z,0
2022-08-28T01:42:07.134Z,0
2022-08-28T01:42:36.603Z,0
2022-08-28T01:42:55.963Z,0
2022-08-28T01:43:27.198Z,0
2022-08-28T01:43:43.692Z,0
2022-08-28T01:44:15.679Z,.64
2022-08-28T01:44:35.755Z,1.12
2022-08-28T01:45:03.254Z,.32
2022-08-28T01:45:38.013Z,0
2022-08-28T01:46:07.178Z,0
2022-08-28T01:46:36.592Z,0
2022-08-28T01:46:55.494Z,0
2022-08-28T01:47:27.390Z,2.09
2022-08-28T01:47:43.939Z,2.89
2022-08-28T01:48:15.515Z,2.09
2022-08-28T01:48:35.869Z,1.44
2022-08-28T01:49:03.130Z,0
2022-08-28T01:49:36.580Z,0
2022-08-28T01:50:07.095Z,1.77
2022-08-28T01:50:35.791Z,1.77
2022-08-28T01:50:55.599Z,0
2022-08-28T01:51:28.190Z,.32
2022-08-28T01:51:59.121Z,1.77
2022-08-28T01:52:31.231Z,1.77
2022-08-28T01:53:03.241Z,0
2022-08-28T01:53:35.918Z,0
2022-08-28T01:54:07.191Z,0
2022-08-28T01:54:36.436Z,0
2022-08-28T01:54:55.463Z,0
2022-08-28T01:55:27.156Z,0
2022-08-28T01:55:43.604Z,0
2022-08-28T01:56:15.562Z,0
2022-08-28T01:56:35.890Z,0
2022-08-28T01:57:03.121Z,0
2022-08-28T01:57:37.425Z,0
2022-08-28T01:58:07.174Z,0
2022-08-28T01:58:38.441Z,0
2022-08-28T01:58:55.506Z,0
2022-08-28T01:59:27.139Z,0
2022-08-28T01:59:43.639Z,0
2022-08-28T02:00:15.625Z,0
2022-08-28T02:00:35.727Z,0
2022-08-28T02:01:03.851Z,0
2022-08-28T02:01:35.555Z,1.77
2022-08-28T02:02:07.313Z,1.12
2022-08-28T02:02:35.879Z,.64
2022-08-28T02:02:55.669Z,1.77
2022-08-28T02:03:27.184Z,1.77
2022-08-28T02:03:43.650Z,1.12
2022-08-28T02:04:15.545Z,1.12
2022-08-28T02:04:37.447Z,0
2022-08-28T02:05:03.261Z,0
2022-08-28T02:05:36.304Z,0
2022-08-28T02:06:07.197Z,0
2022-08-28T02:06:35.786Z,0
2022-08-28T02:06:55.604Z,0
2022-08-28T02:07:27.231Z,0
2022-08-28T02:07:43.603Z,0
2022-08-28T02:08:15.657Z,0
2022-08-28T02:08:36.956Z,0
2022-08-28T02:09:03.749Z,0
2022-08-28T02:09:36.779Z,.32
2022-08-28T02:10:07.191Z,1.77
2022-08-28T02:10:35.932Z,2.57
2022-08-28T02:10:56.304Z,1.44
2022-08-28T02:11:27.313Z,0
2022-08-28T02:11:59.192Z,0
2022-08-28T02:12:31.318Z,1.44
2022-08-28T02:13:03.434Z,0
2022-08-28T02:13:35.487Z,0
2022-08-28T02:14:07.890Z,0
2022-08-28T02:14:35.866Z,0
2022-08-28T02:14:55.539Z,0
2022-08-28T02:15:27.321Z,0
2022-08-28T02:15:43.628Z,0
2022-08-28T02:16:15.749Z,0
2022-08-28T02:16:37.337Z,0
2022-08-28T02:17:03.222Z,0
2022-08-28T02:17:35.848Z,0
2022-08-28T02:18:07.056Z,0
2022-08-28T02:18:35.935Z,0
2022-08-28T02:18:55.418Z,0
2022-08-28T02:19:27.157Z,0
2022-08-28T02:19:43.641Z,0
2022-08-28T02:20:18.035Z,0
2022-08-28T02:20:35.832Z,0
2022-08-28T02:21:03.130Z,0
2022-08-28T02:21:36.087Z,0
2022-08-28T02:22:07.143Z,0
2022-08-28T02:22:35.879Z,0
2022-08-28T02:22:56.137Z,0
2022-08-28T02:23:27.309Z,.32
2022-08-28T02:23:59.461Z,2.89
2022-08-28T02:24:31.123Z,1.44
2022-08-28T02:25:03.051Z,1.44
2022-08-28T02:25:35.535Z,2.09
2022-08-28T02:26:07.149Z,.32
2022-08-28T02:26:35.917Z,0
2022-08-28T02:26:55.455Z,0
2022-08-28T02:27:27.158Z,.64
2022-08-28T02:27:44.703Z,0
2022-08-28T02:28:15.637Z,0
2022-08-28T02:28:35.772Z,0
2022-08-28T02:29:03.032Z,0
2022-08-28T02:29:36.513Z,0
2022-08-28T02:30:08.490Z,0
2022-08-28T02:30:36.026Z,.32
2022-08-28T02:30:55.526Z,1.44
2022-08-28T02:31:27.224Z,0
2022-08-28T02:31:43.588Z,0
2022-08-28T02:32:15.552Z,0
2022-08-28T02:32:35.968Z,0
2022-08-28T02:33:03.083Z,1.12
2022-08-28T02:33:35.664Z,.64
2022-08-28T02:34:07.216Z,1.44
2022-08-28T02:34:37.492Z,.32
2022-08-28T02:34:55.075Z,0
2022-08-28T02:35:27.128Z,0
2022-08-28T02:35:43.522Z,0
2022-08-28T02:36:15.370Z,.32
2022-08-28T02:36:37.490Z,0
2022-08-28T02:37:09.243Z,0
2022-08-28T02:37:38.014Z,0
2022-08-28T02:38:10.147Z,.32
2022-08-28T02:38:45.489Z,1.12
2022-08-28T02:38:59.496Z,0
2022-08-28T02:39:27.912Z,0
2022-08-28T02:39:59.739Z,0
2022-08-28T02:40:33.863Z,1.12
2022-08-28T02:41:06.648Z,1.77
2022-08-28T02:41:36.955Z,1.77
2022-08-28T02:42:10.493Z,1.77
2022-08-28T02:42:38.869Z,2.57
2022-08-28T02:43:11.294Z,1.77
2022-08-28T02:43:36.385Z,1.77
2022-08-28T02:43:59.247Z,1.77
2022-08-28T02:44:32.242Z,0
2022-08-28T02:45:03.239Z,1.77
2022-08-28T02:45:38.335Z,.32
2022-08-28T02:46:07.264Z,0
2022-08-28T02:46:36.125Z,0
2022-08-28T02:46:55.371Z,.32
2022-08-28T02:47:28.133Z,1.44
2022-08-28T02:47:59.185Z,1.12
2022-08-28T02:48:31.158Z,0
2022-08-28T02:49:03.041Z,0
2022-08-28T02:49:36.347Z,0
2022-08-28T02:50:07.213Z,0
2022-08-28T02:50:35.977Z,0
2022-08-28T02:50:55.501Z,0
2022-08-28T02:51:27.142Z,0
2022-08-28T02:51:44.627Z,0
2022-08-28T02:52:15.478Z,.32
2022-08-28T02:52:35.971Z,1.44
2022-08-28T02:53:03.120Z,1.12
2022-08-28T02:53:35.311Z,.64
2022-08-28T02:54:07.031Z,1.44
2022-08-28T02:54:35.912Z,0
2022-08-28T02:54:55.362Z,1.12
2022-08-28T02:55:30.211Z,1.44
2022-08-28T02:55:44.680Z,1.12
2022-08-28T02:56:15.376Z,1.12
2022-08-28T02:56:35.922Z,.32
2022-08-28T02:57:05.471Z,1.44
2022-08-28T02:57:35.484Z,.32
2022-08-28T02:58:07.319Z,0
2022-08-28T02:58:36.860Z,0
2022-08-28T02:58:56.720Z,.32
2022-08-28T02:59:28.140Z,1.77
2022-08-28T02:59:59.144Z,1.12
2022-08-28T03:00:31.091Z,1.12
2022-08-28T03:01:03.285Z,0
2022-08-28T03:01:37.566Z,0
2022-08-28T03:02:07.304Z,0
2022-08-28T03:02:35.919Z,.32
2022-08-28T03:02:55.487Z,2.09
2022-08-28T03:03:27.904Z,.32
2022-08-28T03:03:59.836Z,0
2022-08-28T03:04:32.308Z,.64
2022-08-28T03:05:03.996Z,.64
2022-08-28T03:05:35.495Z,1.12
2022-08-28T03:06:07.934Z,.32
2022-08-28T03:06:37.071Z,1.44
2022-08-28T03:06:55.350Z,1.12
2022-08-28T03:07:27.835Z,1.12
2022-08-28T03:07:59.360Z,0
2022-08-28T03:08:31.200Z,0
2022-08-28T03:09:04.767Z,1.77
2022-08-28T03:09:35.522Z,0
2022-08-28T03:10:09.107Z,0
2022-08-28T03:10:35.997Z,.64
2022-08-28T03:10:55.490Z,1.12
2022-08-28T03:11:27.116Z,.64
2022-08-28T03:11:43.517Z,0
2022-08-28T03:12:15.395Z,1.44
2022-08-28T03:12:35.995Z,.32
2022-08-28T03:13:03.721Z,.32
2022-08-28T03:13:35.422Z,.32
2022-08-28T03:14:07.772Z,0
2022-08-28T03:14:36.003Z,0
2022-08-28T03:14:55.453Z,4.02
2022-08-28T03:15:28.118Z,4.98
2022-08-28T03:15:59.104Z,2.09
2022-08-28T03:16:31.200Z,0
2022-08-28T03:17:04.008Z,1.77
2022-08-28T03:17:37.371Z,0
2022-08-28T03:18:08.079Z,0
2022-08-28T03:18:35.979Z,.32
2022-08-28T03:18:55.451Z,3.21
2022-08-28T03:19:27.164Z,2.57
2022-08-28T03:19:43.525Z,.64
2022-08-28T03:20:15.454Z,1.44
2022-08-28T03:20:36.648Z,0
2022-08-28T03:21:03.120Z,1.44
2022-08-28T03:21:35.448Z,1.77
2022-08-28T03:22:07.053Z,1.44
2022-08-28T03:22:35.941Z,1.12
2022-08-28T03:22:55.273Z,0
2022-08-28T03:23:27.248Z,0
2022-08-28T03:23:43.734Z,0
2022-08-28T03:24:19.626Z,1.12
2022-08-28T03:24:36.906Z,1.44
2022-08-28T03:25:03.161Z,2.89
2022-08-28T03:25:36.214Z,0
2022-08-28T03:26:07.083Z,0
2022-08-28T03:26:36.208Z,0
2022-08-28T03:26:55.443Z,1.44
2022-08-28T03:27:27.279Z,3.21
2022-08-28T03:28:01.336Z,0
2022-08-28T03:28:31.226Z,0
2022-08-28T03:29:03.860Z,1.12
2022-08-28T03:29:35.464Z,1.77
2022-08-28T03:30:07.456Z,0
2022-08-28T03:30:36.558Z,0
2022-08-28T03:30:55.432Z,0
2022-08-28T03:31:27.891Z,0
2022-08-28T03:31:59.192Z,0
2022-08-28T03:32:32.122Z,.32
2022-08-28T03:33:03.027Z,1.12
2022-08-28T03:33:35.207Z,1.12
2022-08-28T03:34:07.203Z,2.09
2022-08-28T03:34:37.027Z,.64
2022-08-28T03:34:56.203Z,0
2022-08-28T03:35:27.093Z,0
2022-08-28T03:35:43.567Z,.32
2022-08-28T03:36:15.604Z,0
2022-08-28T03:36:36.067Z,0
2022-08-28T03:37:03.153Z,1.12
2022-08-28T03:37:35.834Z,1.77
2022-08-28T03:38:10.155Z,1.77
2022-08-28T03:38:35.956Z,1.44
2022-08-28T03:38:55.377Z,0
2022-08-28T03:39:27.956Z,2.09
2022-08-28T03:39:59.127Z,1.77
2022-08-28T03:40:31.314Z,1.77
2022-08-28T03:41:03.058Z,.32
2022-08-28T03:41:36.251Z,1.44
2022-08-28T03:42:07.105Z,1.44
2022-08-28T03:42:36.257Z,0
2022-08-28T03:42:55.494Z,0
2022-08-28T03:43:27.275Z,0
2022-08-28T03:43:43.601Z,0
2022-08-28T03:44:15.496Z,1.12
2022-08-28T03:44:35.974Z,3.21
2022-08-28T03:45:03.255Z,2.09
2022-08-28T03:45:35.413Z,0
2022-08-28T03:46:08.095Z,.32
2022-08-28T03:46:36.807Z,1.12
2022-08-28T03:46:55.370Z,1.12
2022-08-28T03:47:27.068Z,4.66
2022-08-28T03:47:44.517Z,4.34
2022-08-28T03:48:15.234Z,4.02
2022-08-28T03:48:36.913Z,1.44
2022-08-28T03:49:03.122Z,4.98
2022-08-28T03:49:36.260Z,2.89
2022-08-28T03:50:07.085Z,2.89
2022-08-28T03:50:35.962Z,1.77
2022-08-28T03:50:56.593Z,4.98
2022-08-28T03:51:29.749Z,3.21
2022-08-28T03:52:00.010Z,2.09
2022-08-28T03:52:31.087Z,3.54
2022-08-28T03:53:03.075Z,2.89
2022-08-28T03:53:35.590Z,.32
2022-08-28T03:54:07.682Z,2.89
2022-08-28T03:54:36.050Z,1.77
2022-08-28T03:54:55.250Z,4.34
2022-08-28T03:55:27.107Z,2.57
2022-08-28T03:55:43.582Z,1.77
2022-08-28T03:56:15.232Z,5.47
2022-08-28T03:56:37.918Z,4.66
2022-08-28T03:57:05.251Z,6.11
2022-08-28T03:57:35.350Z,2.09
2022-08-28T03:58:07.009Z,2.09
2022-08-28T03:58:39.214Z,3.54
2022-08-28T03:59:12.171Z,2.89
2022-08-28T03:59:37.043Z,4.34
2022-08-28T03:59:59.264Z,2.89
2022-08-28T04:00:31.059Z,3.54
2022-08-28T04:01:03.157Z,1.44
2022-08-28T04:01:35.406Z,1.44
2022-08-28T04:02:07.075Z,1.77
2022-08-28T04:02:37.397Z,2.09
2022-08-28T04:02:55.248Z,1.12
2022-08-28T04:03:27.129Z,7.56
2022-08-28T04:03:43.758Z,4.02
2022-08-28T04:04:16.714Z,2.09
2022-08-28T04:04:36.021Z,2.89
2022-08-28T04:05:03.074Z,1.77
2022-08-28T04:05:35.346Z,0
2022-08-28T04:06:07.069Z,0
2022-08-28T04:06:36.590Z,0
2022-08-28T04:06:55.245Z,1.44
2022-08-28T04:07:27.178Z,0
2022-08-28T04:07:43.667Z,.32
2022-08-28T04:08:15.328Z,0
2022-08-28T04:08:37.036Z,0
2022-08-28T04:09:03.069Z,0
2022-08-28T04:09:37.194Z,.32
2022-08-28T04:10:07.070Z,1.77
2022-08-28T04:10:35.872Z,1.44
2022-08-28T04:10:56.250Z,.64
2022-08-28T04:11:27.104Z,0
2022-08-28T04:11:43.532Z,0
2022-08-28T04:12:15.364Z,0
2022-08-28T04:12:35.819Z,.32
2022-08-28T04:13:03.186Z,.64
2022-08-28T04:13:36.673Z,.32
2022-08-28T04:14:07.181Z,1.12
2022-08-28T04:14:35.979Z,.64
2022-08-28T04:14:55.207Z,.32
2022-08-28T04:15:27.241Z,0
2022-08-28T04:15:43.746Z,0
2022-08-28T04:16:15.289Z,0
2022-08-28T04:16:36.378Z,0
2022-08-28T04:17:03.116Z,0
2022-08-28T04:17:36.290Z,.32
2022-08-28T04:18:07.900Z,.32
2022-08-28T04:18:35.943Z,.32
2022-08-28T04:18:56.470Z,.64
2022-08-28T04:19:28.683Z,0
2022-08-28T04:19:59.213Z,0
2022-08-28T04:20:31.067Z,1.44
2022-08-28T04:21:03.879Z,.64
2022-08-28T04:21:35.489Z,0
2022-08-28T04:22:07.130Z,0
2022-08-28T04:22:36.762Z,0
2022-08-28T04:22:56.108Z,0
2022-08-28T04:23:29.345Z,0
2022-08-28T04:23:58.983Z,0
2022-08-28T04:24:31.607Z,0
2022-08-28T04:25:04.156Z,0
2022-08-28T04:25:36.129Z,0
2022-08-28T04:26:07.441Z,0
2022-08-28T04:26:36.029Z,0
2022-08-28T04:26:55.180Z,.32
2022-08-28T04:27:27.854Z,0
2022-08-28T04:27:59.063Z,0
2022-08-28T04:28:31.008Z,0
2022-08-28T04:29:03.070Z,1.77
2022-08-28T04:29:36.055Z,0
2022-08-28T04:30:07.442Z,1.77
2022-08-28T04:30:36.223Z,.64
2022-08-28T04:30:55.051Z,0
2022-08-28T04:31:31.723Z,0
2022-08-28T04:31:43.558Z,0
2022-08-28T04:32:15.116Z,0
2022-08-28T04:32:35.999Z,0
2022-08-28T04:33:03.079Z,0
2022-08-28T04:33:36.341Z,0
2022-08-28T04:34:08.277Z,0
2022-08-28T04:34:36.403Z,0
2022-08-28T04:34:55.123Z,0
2022-08-28T04:35:27.012Z,0
2022-08-28T04:35:43.482Z,0
2022-08-28T04:36:15.086Z,0
2022-08-28T04:36:36.035Z,.32
2022-08-28T04:37:03.216Z,.64
2022-08-28T04:37:36.237Z,1.44
2022-08-28T04:38:09.107Z,0
2022-08-28T04:38:39.211Z,.32
2022-08-28T04:38:55.145Z,0
2022-08-28T04:39:27.116Z,2.09
2022-08-28T04:39:44.097Z,1.44
2022-08-28T04:40:15.474Z,1.77
2022-08-28T04:40:36.725Z,.32
2022-08-28T04:41:02.981Z,0
2022-08-28T04:41:35.133Z,0
2022-08-28T04:42:07.246Z,0
2022-08-28T04:42:35.913Z,0
2022-08-28T04:42:55.076Z,0
2022-08-28T04:43:27.038Z,0
2022-08-28T04:43:43.570Z,0
2022-08-28T04:44:15.041Z,0
2022-08-28T04:44:36.049Z,0
2022-08-28T04:45:04.130Z,0
2022-08-28T04:45:35.168Z,0
2022-08-28T04:46:07.146Z,0
2022-08-28T04:46:36.603Z,0
2022-08-28T04:46:55.081Z,1.44
2022-08-28T04:47:27.025Z,2.57
2022-08-28T04:47:43.607Z,1.77
2022-08-28T04:48:15.724Z,1.77
2022-08-28T04:48:36.013Z,.32
2022-08-28T04:49:03.243Z,2.09
2022-08-28T04:49:36.053Z,.32
2022-08-28T04:50:07.121Z,0
2022-08-28T04:50:36.149Z,0
2022-08-28T04:50:55.422Z,.32
2022-08-28T04:51:27.193Z,0
2022-08-28T04:51:43.848Z,0
2022-08-28T04:52:15.317Z,1.77
2022-08-28T04:52:37.199Z,1.77
2022-08-28T04:53:03.244Z,1.12
2022-08-28T04:53:35.346Z,0
2022-08-28T04:54:07.905Z,0
2022-08-28T04:54:36.745Z,0
2022-08-28T04:54:55.369Z,0
2022-08-28T04:55:48.557Z,0
2022-08-28T04:55:59.222Z,3.54
2022-08-28T04:56:31.195Z,1.77
2022-08-28T04:57:03.208Z,0
2022-08-28T04:57:36.540Z,0
2022-08-28T04:58:07.188Z,0
2022-08-28T04:58:36.943Z,0
2022-08-28T04:58:55.418Z,1.12
2022-08-28T04:59:27.135Z,.32
2022-08-28T04:59:44.885Z,1.77
2022-08-28T05:00:16.635Z,0
2022-08-28T05:00:36.544Z,0
2022-08-28T05:01:03.386Z,0
2022-08-28T05:01:36.595Z,0
2022-08-28T05:02:07.447Z,0
2022-08-28T05:02:37.002Z,0
2022-08-28T05:02:55.437Z,.32
2022-08-28T05:03:27.400Z,2.57
2022-08-28T05:03:43.717Z,2.09
2022-08-28T05:04:16.257Z,1.44
2022-08-28T05:04:36.166Z,1.12
2022-08-28T05:05:03.133Z,0
2022-08-28T05:05:37.063Z,0
2022-08-28T05:06:07.177Z,0
2022-08-28T05:06:36.657Z,0
2022-08-28T05:06:56.710Z,1.12
2022-08-28T05:07:27.564Z,0
2022-08-28T05:07:44.937Z,0
2022-08-28T05:08:15.436Z,0
2022-08-28T05:08:37.114Z,2.57
2022-08-28T05:09:03.325Z,1.12
2022-08-28T05:09:35.271Z,2.09
2022-08-28T05:10:07.265Z,4.66
2022-08-28T05:10:36.045Z,3.54
2022-08-28T05:10:55.390Z,1.12
2022-08-28T05:11:34.136Z,1.44
2022-08-28T05:11:43.662Z,.32
2022-08-28T05:12:15.409Z,2.09
2022-08-28T05:12:36.233Z,2.89
2022-08-28T05:13:09.534Z,1.77
2022-08-28T05:13:35.286Z,.64
2022-08-28T05:14:07.237Z,2.09
2022-08-28T05:14:36.082Z,2.57
2022-08-28T05:14:55.446Z,5.79
2022-08-28T05:15:27.297Z,4.98
2022-08-28T05:15:43.715Z,2.89
2022-08-28T05:16:16.637Z,3.21
2022-08-28T05:16:36.180Z,4.66
2022-08-28T05:17:03.142Z,4.66
2022-08-28T05:17:35.247Z,3.54
2022-08-28T05:18:07.220Z,2.09
2022-08-28T05:18:37.151Z,4.02
2022-08-28T05:18:56.383Z,3.54
2022-08-28T05:19:27.785Z,4.66
2022-08-28T05:19:59.140Z,3.54
2022-08-28T05:20:31.159Z,.32
2022-08-28T05:21:03.204Z,.64
2022-08-28T05:21:37.179Z,0
2022-08-28T05:22:07.166Z,1.12
2022-08-28T05:22:36.287Z,0
2022-08-28T05:22:55.213Z,0
2022-08-28T05:23:27.268Z,1.44
2022-08-28T05:23:43.739Z,5.47
2022-08-28T05:24:15.291Z,1.44
2022-08-28T05:24:37.344Z,1.44
2022-08-28T05:25:05.226Z,4.02
2022-08-28T05:25:35.578Z,4.66
2022-08-28T05:26:08.389Z,.32
2022-08-28T05:26:36.069Z,0
2022-08-28T05:26:56.074Z,0
2022-08-28T05:27:27.257Z,.32
2022-08-28T05:27:46.812Z,1.77
2022-08-28T05:28:15.349Z,0
2022-08-28T05:28:36.293Z,1.12
2022-08-28T05:29:03.352Z,1.77
2022-08-28T05:29:36.772Z,.64
2022-08-28T05:30:07.421Z,2.89
2022-08-28T05:30:36.239Z,1.44
2022-08-28T05:30:55.143Z,1.44
2022-08-28T05:31:27.332Z,1.12
2022-08-28T05:31:43.992Z,.64
2022-08-28T05:32:16.499Z,2.09
2022-08-28T05:32:36.270Z,1.12
2022-08-28T05:33:03.079Z,0
2022-08-28T05:33:37.441Z,1.77
2022-08-28T05:34:07.256Z,1.12
2022-08-28T05:34:36.481Z,.32
2022-08-28T05:34:55.831Z,3.54
2022-08-28T05:35:28.275Z,2.09
2022-08-28T05:35:59.332Z,6.43
2022-08-28T05:36:32.790Z,4.34
2022-08-28T05:37:04.091Z,9.33
2022-08-28T05:37:36.706Z,6.92
2022-08-28T05:38:07.452Z,6.92
2022-08-28T05:38:36.183Z,4.66
2022-08-28T05:38:55.283Z,2.09
2022-08-28T05:39:27.297Z,2.89
2022-08-28T05:39:43.868Z,2.89
2022-08-28T05:40:15.464Z,1.44
2022-08-28T05:40:36.722Z,2.09
2022-08-28T05:41:04.085Z,5.47
2022-08-28T05:41:36.649Z,2.89
2022-08-28T05:42:06.989Z,2.09
2022-08-28T05:42:39.169Z,.32
2022-08-28T05:42:55.204Z,.64
2022-08-28T05:43:27.457Z,2.09
2022-08-28T05:43:43.630Z,2.09
2022-08-28T05:44:15.224Z,2.89
2022-08-28T05:44:36.414Z,3.54
2022-08-28T05:45:03.861Z,4.02
2022-08-28T05:45:35.350Z,3.21
2022-08-28T05:46:08.525Z,2.09
2022-08-28T05:46:36.053Z,2.09
2022-08-28T05:46:55.197Z,2.57
2022-08-28T05:47:27.193Z,5.47
2022-08-28T05:47:43.703Z,9.33
2022-08-28T05:48:15.177Z,2.89
2022-08-28T05:48:39.569Z,1.77
2022-08-28T05:49:06.649Z,2.89
2022-08-28T05:49:35.162Z,3.54
2022-08-28T05:50:07.951Z,2.09
2022-08-28T05:50:37.302Z,2.09
2022-08-28T05:50:55.316Z,1.12
2022-08-28T05:51:27.863Z,0
2022-08-28T05:51:59.556Z,1.44
2022-08-28T05:52:31.233Z,1.77
2022-08-28T05:53:03.464Z,2.89
2022-08-28T05:53:36.684Z,4.02
2022-08-28T05:54:08.624Z,.32
2022-08-28T05:54:36.519Z,.32
2022-08-28T05:54:55.377Z,0
2022-08-28T05:55:27.225Z,1.77
2022-08-28T05:55:59.361Z,2.09
2022-08-28T05:56:31.120Z,1.77
2022-08-28T05:57:03.062Z,1.44
2022-08-28T05:57:37.003Z,2.89
2022-08-28T05:58:07.177Z,1.12
2022-08-28T05:58:36.472Z,4.02
2022-08-28T05:58:56.217Z,3.54
2022-08-28T05:59:27.292Z,2.89
2022-08-28T05:59:43.636Z,.32
2022-08-28T06:00:15.270Z,.32
2022-08-28T06:00:36.112Z,1.77
2022-08-28T06:01:03.324Z,1.77
2022-08-28T06:01:36.235Z,3.54
2022-08-28T06:02:07.161Z,1.77
2022-08-28T06:02:36.889Z,1.77
2022-08-28T06:02:55.199Z,1.77
2022-08-28T06:03:27.279Z,2.57
2022-08-28T06:03:44.737Z,2.09
2022-08-28T06:04:16.128Z,3.54
2022-08-28T06:04:37.785Z,4.02
2022-08-28T06:05:03.280Z,4.66
2022-08-28T06:05:35.224Z,6.11
2022-08-28T06:06:07.188Z,3.54
2022-08-28T06:06:36.292Z,2.09
2022-08-28T06:06:55.128Z,.32
2022-08-28T06:07:29.153Z,5.79
2022-08-28T06:07:59.205Z,5.47
2022-08-28T06:08:31.065Z,4.02
2022-08-28T06:09:03.282Z,0
2022-08-28T06:09:35.290Z,2.89
2022-08-28T06:10:10.590Z,2.89
2022-08-28T06:10:36.851Z,2.89
2022-08-28T06:10:55.023Z,3.54
2022-08-28T06:11:27.252Z,1.77
2022-08-28T06:11:44.720Z,4.02
2022-08-28T06:12:16.013Z,4.66
2022-08-28T06:12:36.283Z,4.34
2022-08-28T06:13:03.574Z,1.44
2022-08-28T06:13:35.236Z,0
2022-08-28T06:14:07.225Z,2.89
2022-08-28T06:14:36.170Z,4.02
2022-08-28T06:14:57.810Z,4.98
2022-08-28T06:15:27.368Z,3.54
2022-08-28T06:15:43.959Z,6.43
2022-08-28T06:16:15.354Z,5.47
2022-08-28T06:16:36.542Z,5.79
2022-08-28T06:17:03.136Z,6.11
2022-08-28T06:17:36.053Z,4.66
2022-08-28T06:18:07.114Z,4.66
2022-08-28T06:18:36.413Z,5.47
2022-08-28T06:18:55.190Z,7.24
2022-08-28T06:19:27.855Z,2.89
2022-08-28T06:19:59.214Z,3.54
2022-08-28T06:20:31.069Z,3.54
2022-08-28T06:21:03.108Z,2.09
2022-08-28T06:21:35.852Z,1.44
2022-08-28T06:22:07.657Z,1.44
2022-08-28T06:22:37.052Z,0
2022-08-28T06:22:56.273Z,2.89
2022-08-28T06:23:27.642Z,2.09
2022-08-28T06:23:44.267Z,0
2022-08-28T06:24:15.101Z,.64
2022-08-28T06:24:36.187Z,2.09
2022-08-28T06:25:07.419Z,1.77
2022-08-28T06:25:35.439Z,3.54
2022-08-28T06:26:07.271Z,1.77
2022-08-28T06:26:36.308Z,.64
2022-08-28T06:26:56.545Z,.32